Time;durP1;ratioP1;P1;durP2;ratioP2;P2;SDS_P1;SDS_P2;PMS_P1;PMS_P2;Temp;Humidity;BMP_temperature;BMP_pressure;BME280_temperature;BME280_humidity;BME280_pressure;Samples;Min_cycle;Max_cycle;Signal;HPM_P1;HPM_P2
2022/03/06 00:00:30;;;;;;;;;82.75;75.75;;;;;11.39;58.04;101460.31;2121673;27;47648;-53
2022/03/06 00:01:31;;;;;;;;;82.50;70.00;;;;;11.37;57.86;101464.78;2112299;27;47851;-55
2022/03/06 00:02:31;;;;;;;;;82.00;71.50;;;;;11.37;58.18;101462.13;2111861;27;48699;-57
2022/03/06 00:03:32;;;;;;;;;83.00;69.50;;;;;11.35;57.91;101461.25;2120940;27;47817;-55
2022/03/06 00:04:32;;;;;;;;;84.75;75.25;;;;;11.33;58.13;101455.09;2112734;27;47456;-53
2022/03/06 00:05:33;;;;;;;;;77.25;65.00;;;;;11.32;58.15;101460.44;2112637;27;48054;-55
2022/03/06 00:06:34;;;;;;;;;79.50;67.25;;;;;11.32;57.97;101452.47;2121898;27;47478;-51
2022/03/06 00:07:34;;;;;;;;;80.00;69.25;;;;;11.31;57.99;101454.25;2121533;27;47393;-55
2022/03/06 00:08:35;;;;;;;;;76.50;63.00;;;;;11.30;58.11;101456.88;2122179;27;47867;-54
2022/03/06 00:09:35;;;;;;;;;82.75;70.00;;;;;11.30;57.77;101456.88;2121750;27;47830;-57
2022/03/06 00:10:36;;;;;;;;;81.75;67.75;;;;;11.29;57.97;101463.09;2122033;27;47837;-54
2022/03/06 00:11:36;;;;;;;;;78.25;66.75;;;;;11.29;58.11;101466.63;2122944;27;47237;-55
2022/03/06 00:12:37;;;;;;;;;82.75;72.25;;;;;11.28;57.97;101469.31;2107083;27;47208;-56
2022/03/06 00:13:38;;;;;;;;;83.75;73.50;;;;;11.26;57.86;101468.47;2106574;27;48089;-56
2022/03/06 00:14:38;;;;;;;;;76.00;59.00;;;;;11.25;58.45;101464.06;2129102;27;48187;-54
2022/03/06 00:15:38;;;;;;;;;83.75;72.75;;;;;11.24;58.01;101465.84;2130751;27;47637;-54
2022/03/06 00:16:39;;;;;;;;;83.00;76.00;;;;;11.24;58.23;101460.53;2130203;27;47345;-57
2022/03/06 00:17:39;;;;;;;;;79.50;69.25;;;;;11.24;57.93;101463.19;2112015;27;47061;-54
2022/03/06 00:18:40;;;;;;;;;82.00;74.25;;;;;11.24;58.09;101455.19;2111443;27;47373;-55
2022/03/06 00:19:40;;;;;;;;;79.25;70.00;;;;;11.24;58.33;101465.84;2121553;27;48262;-52
2022/03/06 00:20:42;;;;;;;;;75.50;58.00;;;;;11.23;57.95;101466.72;2125042;27;47807;-55
2022/03/06 00:21:42;;;;;;;;;80.50;69.75;;;;;11.22;57.94;101466.75;2130679;27;48021;-55
2022/03/06 00:22:43;;;;;;;;;78.75;67.75;;;;;11.22;58.05;101464.97;2130135;27;47650;-53
2022/03/06 00:23:43;;;;;;;;;80.50;67.25;;;;;11.22;57.95;101474.72;2130807;27;47510;-54
2022/03/06 00:24:43;;;;;;;;;78.75;71.00;;;;;11.22;58.53;101466.75;2126559;27;48058;-54
2022/03/06 00:25:44;;;;;;;;;84.50;75.50;;;;;11.20;57.68;101472.09;2127322;27;47755;-52
2022/03/06 00:26:44;;;;;;;;;82.25;73.75;;;;;11.18;57.78;101468.59;2129882;27;47451;-54
2022/03/06 00:27:45;;;;;;;;;79.25;68.50;;;;;11.19;57.74;101475.66;2121825;27;47864;-54
2022/03/06 00:28:45;;;;;;;;;82.50;75.00;;;;;11.18;57.76;101471.25;2121343;27;47888;-52
2022/03/06 00:29:45;;;;;;;;;82.00;70.75;;;;;11.15;57.85;101466.81;2121526;27;47886;-50
2022/03/06 00:30:47;;;;;;;;;79.25;68.75;;;;;11.16;57.63;101473.88;2121281;27;48017;-53
2022/03/06 00:31:48;;;;;;;;;80.00;69.50;;;;;11.15;57.74;101480.09;2122615;27;47822;-54
2022/03/06 00:32:48;;;;;;;;;79.50;67.50;;;;;11.14;57.36;101477.47;2121328;27;48061;-55
2022/03/06 00:33:50;;;;;;;;;79.75;67.25;;;;;11.14;57.65;101478.34;2120769;27;47894;-52
2022/03/06 00:34:51;;;;;;;;;81.00;70.00;;;;;11.15;57.65;101473.91;2121645;27;48110;-52
2022/03/06 00:35:51;;;;;;;;;79.50;70.00;;;;;11.15;57.53;101481.88;2122492;27;47214;-55
2022/03/06 00:36:51;;;;;;;;;81.25;70.75;;;;;11.13;57.25;101473.94;2097430;28;47777;-54
2022/03/06 00:37:52;;;;;;;;;80.75;74.25;;;;;11.12;57.43;101479.25;2095136;28;47102;-52
2022/03/06 00:38:52;;;;;;;;;79.50;67.00;;;;;11.11;57.33;101477.50;2128332;27;48336;-56
2022/03/06 00:39:53;;;;;;;;;79.00;66.00;;;;;11.08;57.09;101475.78;2130335;27;47360;-54
2022/03/06 00:40:53;;;;;;;;;80.75;71.75;;;;;11.07;57.29;101475.78;2130318;27;47425;-55
2022/03/06 00:41:54;;;;;;;;;78.75;67.75;;;;;11.05;57.23;101472.25;2130281;27;47203;-52
2022/03/06 00:42:54;;;;;;;;;80.00;68.50;;;;;11.03;57.26;101463.41;2130049;27;48611;-53
2022/03/06 00:43:55;;;;;;;;;78.50;67.50;;;;;11.02;57.01;101477.59;2130138;27;47207;-52
2022/03/06 00:44:55;;;;;;;;;80.25;67.75;;;;;11.01;57.17;101475.84;2129793;27;47459;-54
2022/03/06 00:45:56;;;;;;;;;77.50;64.00;;;;;11.01;57.43;101473.19;2129666;27;47668;-52
2022/03/06 00:46:56;;;;;;;;;79.50;67.00;;;;;11.01;57.14;101473.19;2128497;27;47671;-53
2022/03/06 00:47:57;;;;;;;;;75.25;61.00;;;;;11.00;56.97;101469.66;2121414;27;47940;-52
2022/03/06 00:48:57;;;;;;;;;71.50;57.75;;;;;10.99;57.00;101470.56;2121575;27;47653;-53
2022/03/06 00:49:59;;;;;;;;;80.00;69.25;;;;;10.98;56.95;101467.91;2121169;27;47499;-54
2022/03/06 00:51:01;;;;;;;;;81.25;68.25;;;;;10.98;56.87;101465.25;2121523;27;47928;-57
2022/03/06 00:52:03;;;;;;;;;78.50;66.50;;;;;10.96;56.77;101467.06;2121362;27;47386;-53
2022/03/06 00:53:05;;;;;;;;;76.40;64.60;;;;;10.95;56.86;101470.63;2122838;27;47529;-54
2022/03/06 00:54:05;;;;;;;;;76.40;62.60;;;;;10.92;56.52;101463.53;2123283;27;47809;-53
2022/03/06 00:55:07;;;;;;;;;78.00;64.25;;;;;10.92;56.64;101466.19;2121120;27;47914;-55
2022/03/06 00:56:08;;;;;;;;;78.00;67.20;;;;;10.91;56.65;101465.31;2121584;27;47628;-52
2022/03/06 00:57:08;;;;;;;;;77.75;65.75;;;;;10.90;56.73;101465.34;2129878;27;48000;-53
2022/03/06 00:58:09;;;;;;;;;76.25;64.00;;;;;10.90;56.46;101465.34;2129967;27;47561;-55
2022/03/06 00:59:10;;;;;;;;;77.25;63.25;;;;;10.89;56.52;101468.88;2130249;27;47378;-54
2022/03/06 01:00:11;;;;;;;;;75.75;62.00;;;;;10.86;56.68;101464.50;2129925;27;47420;-55
2022/03/06 01:01:11;;;;;;;;;76.50;64.25;;;;;10.86;56.86;101468.94;2129803;27;47655;-51
2022/03/06 01:02:12;;;;;;;;;78.00;64.75;;;;;10.85;56.47;101478.69;2122415;27;47612;-56
2022/03/06 01:03:15;;;;;;;;;77.50;63.75;;;;;10.85;56.25;101467.19;2121698;27;47632;-53
2022/03/06 01:04:16;;;;;;;;;81.00;69.50;;;;;10.83;56.10;101467.19;2121699;27;47895;-54
2022/03/06 01:05:16;;;;;;;;;78.00;64.00;;;;;10.81;56.17;101469.00;2121389;27;47735;-53
2022/03/06 01:06:17;;;;;;;;;75.50;60.50;;;;;10.82;56.23;101475.19;2121436;27;48278;-53
2022/03/06 01:07:17;;;;;;;;;76.75;63.75;;;;;10.82;55.91;101480.50;2121694;27;47551;-55
2022/03/06 01:08:18;;;;;;;;;80.00;65.75;;;;;10.80;56.42;101477.84;2121637;27;47708;-54
2022/03/06 01:09:18;;;;;;;;;75.25;61.00;;;;;10.80;56.11;101471.66;2121739;27;47507;-53
2022/03/06 01:10:19;;;;;;;;;79.75;68.50;;;;;10.79;56.14;101475.19;2123618;27;47668;-49
2022/03/06 01:11:20;;;;;;;;;74.00;59.60;;;;;10.80;56.12;101484.94;2130270;27;46786;-55
2022/03/06 01:12:21;;;;;;;;;78.50;65.25;;;;;10.78;56.06;101479.63;2129973;27;47297;-53
2022/03/06 01:13:22;;;;;;;;;75.50;62.25;;;;;10.79;56.09;101481.38;2130112;27;47606;-54
2022/03/06 01:14:22;;;;;;;;;78.50;69.50;;;;;10.78;56.04;101476.09;2130348;27;47727;-50
2022/03/06 01:15:23;;;;;;;;;79.50;66.00;;;;;10.78;55.78;101484.94;2129682;27;47630;-51
2022/03/06 01:16:24;;;;;;;;;76.25;59.25;;;;;10.78;55.88;101484.06;2102712;28;48400;-54
2022/03/06 01:17:24;;;;;;;;;73.75;58.25;;;;;10.77;55.79;101483.19;2096006;28;47550;-52
2022/03/06 01:18:25;;;;;;;;;71.50;59.25;;;;;10.76;55.75;101481.41;2123702;27;47289;-54
2022/03/06 01:19:25;;;;;;;;;74.25;61.25;;;;;10.76;55.72;101484.06;2130192;27;47482;-53
2022/03/06 01:20:26;;;;;;;;;78.00;64.75;;;;;10.76;55.72;101481.41;2129634;27;47779;-53
2022/03/06 01:21:26;;;;;;;;;76.00;61.75;;;;;10.75;55.73;101477.00;2120158;27;47295;-54
2022/03/06 01:22:27;;;;;;;;;74.50;58.25;;;;;10.74;55.73;101482.34;2112302;27;47964;-55
2022/03/06 01:23:28;;;;;;;;;78.25;64.75;;;;;10.72;55.52;101477.03;2121611;27;47276;-52
2022/03/06 01:24:28;;;;;;;;;77.40;63.20;;;;;10.72;55.49;101484.13;2123231;27;47558;-55
2022/03/06 01:25:29;;;;;;;;;80.25;68.25;;;;;10.70;55.43;101478.84;2122539;27;47374;-53
2022/03/06 01:26:30;;;;;;;;;74.25;62.25;;;;;10.70;55.35;101481.50;2123770;27;47481;-55
2022/03/06 01:27:31;;;;;;;;;77.50;62.00;;;;;10.70;55.33;101481.50;2130143;27;47667;-54
2022/03/06 01:28:32;;;;;;;;;78.25;65.50;;;;;10.68;55.40;101475.31;2124366;27;47977;-55
2022/03/06 01:29:32;;;;;;;;;73.00;58.25;;;;;10.67;55.49;101477.97;2121094;27;47517;-54
2022/03/06 01:30:32;;;;;;;;;78.75;64.50;;;;;10.64;55.51;101480.66;2121155;27;47645;-52
2022/03/06 01:31:33;;;;;;;;;78.25;63.00;;;;;10.63;55.34;101479.78;2121037;27;47379;-54
2022/03/06 01:32:34;;;;;;;;;79.25;66.75;;;;;10.63;55.37;101479.78;2121396;27;47954;-54
2022/03/06 01:33:34;;;;;;;;;77.25;65.00;;;;;10.63;55.22;101478.91;2121147;27;47285;-53
2022/03/06 01:34:35;;;;;;;;;75.00;57.75;;;;;10.62;55.33;101478.03;2121227;27;47081;-55
2022/03/06 01:35:35;;;;;;;;;78.25;67.50;;;;;10.58;55.36;101477.19;2121248;27;47680;-55
2022/03/06 01:36:35;;;;;;;;;73.75;57.00;;;;;10.58;55.16;101478.97;2121249;27;47344;-56
2022/03/06 01:37:36;;;;;;;;;73.00;60.50;;;;;10.57;55.19;101471.91;2121361;27;47472;-53
2022/03/06 01:38:36;;;;;;;;;76.75;62.00;;;;;10.55;54.95;101485.19;2121228;27;47562;-54
2022/03/06 01:39:37;;;;;;;;;75.75;62.50;;;;;10.55;55.13;101481.66;2121644;27;47967;-53
2022/03/06 01:40:37;;;;;;;;;74.75;58.75;;;;;10.53;55.06;101481.63;2128075;27;47797;-55
2022/03/06 01:41:38;;;;;;;;;78.25;66.75;;;;;10.53;55.25;101475.44;2129606;27;47198;-54
2022/03/06 01:42:40;;;;;;;;;78.00;63.25;;;;;10.53;55.28;101486.94;2129745;27;48294;-54
2022/03/06 01:43:41;;;;;;;;;73.20;57.00;;;;;10.51;54.98;101472.81;2129591;27;47785;-52
2022/03/06 01:44:48;;;;;;;;;75.75;60.25;;;;;10.52;54.99;101481.66;2130034;27;47678;-52
2022/03/06 01:45:49;;;;;;;;;70.40;56.60;;;;;10.50;54.91;101479.03;2131588;27;47909;-56
2022/03/06 01:46:49;;;;;;;;;73.75;59.75;;;;;10.48;54.86;101480.81;2131773;27;47737;-55
2022/03/06 01:47:54;;;;;;;;;75.75;61.25;;;;;10.47;54.81;101478.19;2131330;27;47096;-54
2022/03/06 01:48:55;;;;;;;;;74.80;59.00;;;;;10.46;54.59;101479.06;2126352;27;46226;-55
2022/03/06 01:49:55;;;;;;;;;77.00;62.00;;;;;10.45;54.78;101479.97;2128015;27;47435;-55
2022/03/06 01:50:56;;;;;;;;;76.75;63.00;;;;;10.43;54.73;101474.69;2122507;27;47192;-51
2022/03/06 01:51:56;;;;;;;;;74.50;59.25;;;;;10.42;54.62;101475.56;2122478;27;47968;-53
2022/03/06 01:52:58;;;;;;;;;70.25;55.50;;;;;10.41;54.36;101468.47;2115181;27;47476;-52
2022/03/06 01:53:59;;;;;;;;;71.60;58.40;;;;;10.40;54.25;101482.66;2122377;27;47746;-53
2022/03/06 01:55:00;;;;;;;;;75.00;59.25;;;;;10.39;54.32;101483.53;2107761;27;47462;-51
2022/03/06 01:56:00;;;;;;;;;77.75;65.25;;;;;10.38;54.30;101487.09;2104327;28;47061;-55
2022/03/06 01:57:00;;;;;;;;;74.75;62.25;;;;;10.36;54.41;101483.56;2131294;27;48021;-54
2022/03/06 01:58:04;;;;;;;;;72.50;57.00;;;;;10.32;54.01;101485.38;2125880;27;47586;-54
2022/03/06 01:59:05;;;;;;;;;72.00;56.00;;;;;10.29;54.17;101480.09;2122588;27;47479;-53
2022/03/06 02:00:10;;;;;;;;;78.00;61.50;;;;;10.27;54.18;101488.94;2122460;27;47463;-52
2022/03/06 02:01:10;;;;;;;;;69.20;55.00;;;;;10.24;53.99;101473.94;2126971;27;47468;-55
2022/03/06 02:02:10;;;;;;;;;75.25;59.75;;;;;10.23;54.33;101481.91;2131404;27;47732;-52
2022/03/06 02:03:13;;;;;;;;;74.75;58.75;;;;;10.22;54.07;101488.13;2131413;27;47513;-53
2022/03/06 02:04:14;;;;;;;;;72.80;59.40;;;;;10.19;54.14;101481.03;2128076;27;47646;-52
2022/03/06 02:05:14;;;;;;;;;72.50;57.75;;;;;10.19;53.88;101482.81;2122765;27;47422;-52
2022/03/06 02:06:18;;;;;;;;;73.25;60.50;;;;;10.17;54.02;101484.59;2121865;27;48238;-52
2022/03/06 02:07:18;;;;;;;;;74.80;58.80;;;;;10.13;53.89;101490.78;2122681;27;47836;-54
2022/03/06 02:08:18;;;;;;;;;70.50;56.75;;;;;10.10;54.04;101489.06;2131400;27;47413;-54
2022/03/06 02:09:19;;;;;;;;;76.50;60.50;;;;;10.08;53.88;101488.19;2125698;27;47779;-52
2022/03/06 02:10:20;;;;;;;;;73.50;57.25;;;;;10.05;53.94;101488.22;2122634;27;47533;-54
2022/03/06 02:11:24;;;;;;;;;72.50;56.75;;;;;10.03;54.11;101482.03;2122735;27;47174;-52
2022/03/06 02:12:26;;;;;;;;;73.20;58.20;;;;;10.01;54.16;101486.47;2122577;27;48160;-53
2022/03/06 02:13:27;;;;;;;;;75.60;60.00;;;;;10.00;54.16;101484.69;2122709;27;47678;-52
2022/03/06 02:14:27;;;;;;;;;71.00;57.00;;;;;9.99;54.24;101478.53;2122503;27;47448;-53
2022/03/06 02:15:28;;;;;;;;;73.50;59.00;;;;;9.97;53.99;101482.97;2122527;27;47239;-54
2022/03/06 02:16:31;;;;;;;;;76.75;59.50;;;;;9.96;54.01;101475.91;2104401;28;47926;-53
2022/03/06 02:17:32;;;;;;;;;70.80;56.80;;;;;9.95;53.99;101483.88;2111661;27;48145;-53
2022/03/06 02:18:32;;;;;;;;;68.75;55.75;;;;;9.94;53.88;101485.63;2129575;27;47882;-51
2022/03/06 02:20:05;;;;;;;;;71.50;56.00;;;;;9.93;53.86;101480.34;2122781;27;47729;-57
2022/03/06 02:21:10;;;;;;;;;70.80;56.80;;;;;9.90;53.76;101483.88;2122677;27;47617;-52
2022/03/06 02:22:10;;;;;;;;;68.60;56.00;;;;;9.90;53.77;101483.00;2127697;27;47979;-52
2022/03/06 02:23:10;;;;;;;;;77.00;61.75;;;;;9.86;53.78;101489.22;2130976;27;47338;-53
2022/03/06 02:24:11;;;;;;;;;76.25;62.00;;;;;9.82;53.61;101480.41;2131527;27;47747;-55
2022/03/06 02:25:26;;;;;;;;;74.25;60.25;;;;;9.79;53.78;101480.44;2126167;27;47484;-54
2022/03/06 02:26:26;;;;;;;;;73.00;60.20;;;;;9.77;53.80;101481.31;2131154;27;47487;-53
2022/03/06 02:27:27;;;;;;;;;75.50;57.75;;;;;9.75;53.79;101481.31;2105814;27;47375;-55
2022/03/06 02:28:27;;;;;;;;;75.50;57.25;;;;;9.74;53.89;101482.22;2112840;27;47317;-52
2022/03/06 02:29:28;;;;;;;;;68.75;56.00;;;;;9.73;53.71;101483.13;2125155;27;47371;-54
2022/03/06 02:30:32;;;;;;;;;68.75;55.75;;;;;9.72;53.80;101484.00;2122616;27;46014;-51
2022/03/06 02:31:33;;;;;;;;;73.50;59.00;;;;;9.70;53.76;101477.84;2122132;27;47898;-52
2022/03/06 02:32:35;;;;;;;;;68.20;53.20;;;;;9.70;53.93;101478.72;2126798;27;47690;-51
2022/03/06 02:33:35;;;;;;;;;73.60;61.80;;;;;9.68;53.93;101487.56;2130627;27;47266;-54
2022/03/06 02:34:37;;;;;;;;;60.75;48.25;;;;;9.66;53.73;101476.09;2113624;27;47985;-52
2022/03/06 02:35:38;;;;;;;;;74.20;58.40;;;;;9.64;53.75;101478.72;2113227;27;45812;-53
2022/03/06 02:36:39;;;;;;;;;74.50;58.25;;;;;9.63;53.91;101476.09;2104062;28;46209;-53
2022/03/06 02:37:40;;;;;;;;;74.50;59.50;;;;;9.61;53.81;101470.81;2110608;27;48138;-51
2022/03/06 02:38:40;;;;;;;;;72.20;56.20;;;;;9.61;53.92;101473.47;2131078;27;47546;-51
2022/03/06 02:39:43;;;;;;;;;72.00;54.25;;;;;9.59;53.78;101479.66;2130835;27;47914;-51
2022/03/06 02:40:44;;;;;;;;;73.60;57.00;;;;;9.57;53.87;101469.06;2125467;27;47740;-53
2022/03/06 02:41:44;;;;;;;;;75.40;56.80;;;;;9.56;53.86;101477.03;2122424;27;47925;-54
2022/03/06 02:42:46;;;;;;;;;73.50;58.50;;;;;9.54;53.88;101477.06;2122474;27;47508;-52
2022/03/06 02:43:47;;;;;;;;;71.40;58.20;;;;;9.53;53.91;101480.59;2126403;27;48094;-54
2022/03/06 02:44:47;;;;;;;;;72.50;57.75;;;;;9.51;53.77;101473.50;2130485;27;47844;-52
2022/03/06 02:45:48;;;;;;;;;73.75;57.50;;;;;9.50;54.07;101477.06;2112186;27;47734;-54
2022/03/06 02:46:48;;;;;;;;;64.75;51.50;;;;;9.50;53.96;101477.94;2110242;27;47319;-52
2022/03/06 02:47:51;;;;;;;;;69.75;56.50;;;;;9.48;53.73;101471.75;2122394;27;47822;-53
2022/03/06 02:48:52;;;;;;;;;74.80;62.00;;;;;9.48;53.86;101465.59;2128711;27;47600;-52
2022/03/06 02:49:53;;;;;;;;;73.75;55.00;;;;;9.47;53.77;101471.78;2130811;27;47922;-51
2022/03/06 02:50:54;;;;;;;;;71.20;57.40;;;;;9.46;53.99;101470.03;2128073;27;47994;-52
2022/03/06 02:51:54;;;;;;;;;75.25;56.75;;;;;9.45;53.94;101469.13;2122096;27;47138;-55
2022/03/06 02:53:00;;;;;;;;;72.00;56.25;;;;;9.46;53.66;101472.66;2103814;28;47518;-50
2022/03/06 02:54:00;;;;;;;;;71.40;57.00;;;;;9.45;53.82;101471.78;2113865;27;47608;-54
2022/03/06 02:55:00;;;;;;;;;75.75;59.50;;;;;9.43;53.75;101466.50;2131063;27;47425;-53
2022/03/06 02:56:02;;;;;;;;;69.50;56.00;;;;;9.42;53.75;101478.00;2130904;27;47572;-54
2022/03/06 02:57:04;;;;;;;;;71.80;55.40;;;;;9.42;53.58;101471.81;2104702;27;47783;-53
2022/03/06 02:58:05;;;;;;;;;74.00;57.60;;;;;9.41;53.61;101478.00;2104769;27;48091;-55
2022/03/06 02:59:05;;;;;;;;;77.00;57.50;;;;;9.38;53.56;101475.34;2126134;27;47732;-51
2022/03/06 03:00:12;;;;;;;;;76.25;59.25;;;;;9.37;53.78;101492.13;2130727;27;48134;-54
2022/03/06 03:01:13;;;;;;;;;68.80;55.20;;;;;9.35;53.56;101476.25;2130525;27;48084;-54
2022/03/06 03:02:13;;;;;;;;;72.25;57.50;;;;;9.35;53.72;101480.66;2131070;27;47206;-50
2022/03/06 03:03:14;;;;;;;;;75.75;57.00;;;;;9.33;53.54;101475.38;2131162;27;47540;-50
2022/03/06 03:04:14;;;;;;;;;74.25;57.75;;;;;9.32;53.77;101480.69;2131264;27;47118;-54
2022/03/06 03:05:16;;;;;;;;;70.25;56.25;;;;;9.29;53.63;101480.69;2093685;28;47580;-54
2022/03/06 03:06:17;;;;;;;;;71.00;56.60;;;;;9.28;53.74;101486.88;2087569;27;47785;-54
2022/03/06 03:07:17;;;;;;;;;66.20;53.60;;;;;9.26;53.69;101483.34;2127162;27;46558;-51
2022/03/06 03:08:18;;;;;;;;;69.25;56.00;;;;;9.25;53.68;101481.59;2130427;27;47277;-52
2022/03/06 03:09:20;;;;;;;;;67.50;53.75;;;;;9.25;53.78;101477.16;2131104;27;47680;-51
2022/03/06 03:10:23;;;;;;;;;68.80;54.20;;;;;9.24;53.61;101483.34;2130862;27;47628;-51
2022/03/06 03:11:23;;;;;;;;;77.20;63.00;;;;;9.24;53.56;101479.81;2112219;27;47287;-51
2022/03/06 03:12:25;;;;;;;;;70.75;56.25;;;;;9.24;53.69;101479.81;2112760;27;47949;-52
2022/03/06 03:13:26;;;;;;;;;72.40;58.20;;;;;9.24;53.58;101478.06;2127825;27;47842;-55
2022/03/06 03:14:26;;;;;;;;;68.25;55.00;;;;;9.22;53.50;101478.94;2122574;27;47631;-53
2022/03/06 03:15:26;;;;;;;;;74.25;58.00;;;;;9.19;53.28;101481.63;2122310;27;47789;-55
2022/03/06 03:16:28;;;;;;;;;71.50;56.25;;;;;9.17;53.60;101483.41;2122001;27;47488;-53
2022/03/06 03:17:28;;;;;;;;;74.40;58.60;;;;;9.14;53.47;101482.50;2122195;27;47206;-54
2022/03/06 03:18:29;;;;;;;;;74.00;56.75;;;;;9.14;53.31;101477.19;2122145;27;48013;-52
2022/03/06 03:19:30;;;;;;;;;73.80;57.00;;;;;9.11;53.36;101479.88;2122211;27;47497;-51
2022/03/06 03:20:31;;;;;;;;;70.00;56.50;;;;;9.08;53.36;101476.34;2122422;27;47281;-52
2022/03/06 03:21:31;;;;;;;;;74.25;57.75;;;;;9.06;53.60;101476.38;2122025;27;48219;-51
2022/03/06 03:22:32;;;;;;;;;70.75;57.00;;;;;9.06;53.47;101479.00;2122179;27;47369;-53
2022/03/06 03:23:32;;;;;;;;;72.00;56.75;;;;;9.06;53.49;101486.06;2122204;27;47398;-50
2022/03/06 03:24:33;;;;;;;;;70.00;56.50;;;;;9.05;53.51;101484.31;2123601;27;47749;-51
2022/03/06 03:25:33;;;;;;;;;70.25;56.75;;;;;9.04;53.42;101486.09;2122223;27;47243;-51
2022/03/06 03:26:33;;;;;;;;;70.50;55.50;;;;;9.03;53.64;101488.75;2121863;27;47495;-51
2022/03/06 03:27:34;;;;;;;;;71.50;56.25;;;;;9.02;53.42;101486.94;2122228;27;48082;-52
2022/03/06 03:28:35;;;;;;;;;69.50;54.50;;;;;9.00;53.66;101494.03;2121930;27;48137;-54
2022/03/06 03:29:35;;;;;;;;;72.25;57.75;;;;;8.99;53.41;101487.84;2122091;27;47345;-53
2022/03/06 03:30:35;;;;;;;;;76.00;60.75;;;;;8.96;53.53;101484.34;2122378;27;47395;-51
2022/03/06 03:31:36;;;;;;;;;74.00;58.25;;;;;8.94;53.60;101483.47;2122195;27;47862;-51
2022/03/06 03:32:37;;;;;;;;;72.25;57.50;;;;;8.94;53.67;101489.63;2121965;27;47605;-53
2022/03/06 03:33:37;;;;;;;;;67.60;54.60;;;;;8.93;53.55;101484.34;2122171;27;47071;-50
2022/03/06 03:34:38;;;;;;;;;72.75;57.25;;;;;8.92;53.56;101488.78;2121870;27;47398;-52
2022/03/06 03:35:38;;;;;;;;;72.00;57.25;;;;;8.92;53.76;101490.53;2122546;27;47427;-51
2022/03/06 03:36:39;;;;;;;;;68.25;54.50;;;;;8.91;53.54;101489.66;2122098;27;48108;-55
2022/03/06 03:37:40;;;;;;;;;72.20;57.40;;;;;8.89;53.77;101486.09;2122093;27;47809;-54
2022/03/06 03:38:40;;;;;;;;;69.00;55.50;;;;;8.89;53.92;101488.75;2127018;27;47976;-54
2022/03/06 03:39:41;;;;;;;;;71.50;56.50;;;;;8.88;53.61;101487.00;2130281;27;47901;-54
2022/03/06 03:40:41;;;;;;;;;73.00;58.00;;;;;8.87;53.66;101487.88;2113146;27;47276;-51
2022/03/06 03:41:41;;;;;;;;;70.50;57.75;;;;;8.85;53.76;101489.66;2116757;27;47970;-51
2022/03/06 03:42:42;;;;;;;;;72.25;57.00;;;;;8.84;53.78;101491.41;2130551;27;47232;-54
2022/03/06 03:43:42;;;;;;;;;76.25;59.25;;;;;8.83;53.92;101496.72;2123188;27;47247;-53
2022/03/06 03:44:43;;;;;;;;;71.75;57.50;;;;;8.83;53.79;101494.06;2121509;27;48023;-53
2022/03/06 03:45:43;;;;;;;;;71.25;57.75;;;;;8.82;53.81;101492.31;2122447;27;47392;-52
2022/03/06 03:46:44;;;;;;;;;71.50;56.25;;;;;8.81;53.66;101494.09;2127151;27;47651;-51
2022/03/06 03:47:44;;;;;;;;;72.25;57.25;;;;;8.81;53.68;101501.16;2130711;27;47828;-52
2022/03/06 03:48:45;;;;;;;;;70.75;56.50;;;;;8.81;53.74;101503.78;2121567;27;47849;-52
2022/03/06 03:49:45;;;;;;;;;74.00;57.00;;;;;8.78;53.66;101507.31;2121863;27;47768;-55
2022/03/06 03:50:46;;;;;;;;;73.00;58.75;;;;;8.78;53.67;101493.22;2124579;27;48078;-52
2022/03/06 03:51:46;;;;;;;;;73.50;58.75;;;;;8.76;53.91;101497.59;2122004;27;47608;-53
2022/03/06 03:52:46;;;;;;;;;69.75;54.75;;;;;8.74;53.82;101502.91;2121978;27;47676;-54
2022/03/06 03:53:47;;;;;;;;;77.50;58.50;;;;;8.71;53.91;101499.38;2122115;27;47751;-53
2022/03/06 03:54:47;;;;;;;;;77.75;59.75;;;;;8.70;53.83;101505.56;2122058;27;47188;-53
2022/03/06 03:55:49;;;;;;;;;71.50;57.00;;;;;8.68;53.68;101507.34;2121774;27;47156;-53
2022/03/06 03:56:49;;;;;;;;;70.80;57.00;;;;;8.68;54.04;101505.56;2123142;27;47350;-54
2022/03/06 03:57:50;;;;;;;;;71.00;57.50;;;;;8.67;53.78;101510.88;2131009;27;47183;-54
2022/03/06 03:58:50;;;;;;;;;69.75;56.00;;;;;8.64;54.04;101506.47;2129906;27;47857;-52
2022/03/06 03:59:51;;;;;;;;;69.75;56.50;;;;;8.65;54.08;101507.34;2130173;27;47917;-54
2022/03/06 04:00:54;;;;;;;;;62.25;49.00;;;;;8.64;54.30;101509.13;2130230;27;47115;-54
2022/03/06 04:01:54;;;;;;;;;72.00;57.60;;;;;8.65;54.03;101507.34;2130296;27;47553;-55
2022/03/06 04:02:55;;;;;;;;;71.25;57.75;;;;;8.64;53.94;101501.19;2130406;27;47843;-53
2022/03/06 04:03:55;;;;;;;;;69.50;54.00;;;;;8.64;54.01;101510.84;2111979;27;47618;-51
2022/03/06 04:04:56;;;;;;;;;71.50;57.50;;;;;8.63;54.03;101515.25;2111927;27;47559;-54
2022/03/06 04:05:56;;;;;;;;;73.25;59.00;;;;;8.61;54.30;101510.84;2112501;27;47498;-52
2022/03/06 04:06:57;;;;;;;;;76.50;60.50;;;;;8.58;53.98;101511.75;2112234;27;47829;-51
2022/03/06 04:07:57;;;;;;;;;71.75;57.25;;;;;8.57;54.01;101511.75;2111835;27;47782;-55
2022/03/06 04:08:58;;;;;;;;;72.25;58.00;;;;;8.57;54.15;101514.41;2111873;27;47612;-54
2022/03/06 04:09:58;;;;;;;;;70.00;55.50;;;;;8.55;54.07;101511.75;2112469;27;47438;-54
2022/03/06 04:10:59;;;;;;;;;76.25;62.75;;;;;8.54;54.20;101516.16;2112742;27;48273;-50
2022/03/06 04:12:00;;;;;;;;;68.50;56.00;;;;;8.52;54.23;101514.41;2112083;27;47903;-49
2022/03/06 04:13:00;;;;;;;;;74.25;58.50;;;;;8.52;54.28;101520.59;2112438;27;47570;-54
2022/03/06 04:14:01;;;;;;;;;69.00;55.25;;;;;8.51;54.27;101516.19;2112268;27;47684;-53
2022/03/06 04:15:01;;;;;;;;;68.50;55.50;;;;;8.49;54.39;101509.97;2112104;27;47360;-53
2022/03/06 04:16:02;;;;;;;;;69.75;56.25;;;;;8.49;54.24;101520.56;2103475;28;47204;-50
2022/03/06 04:17:03;;;;;;;;;72.00;57.40;;;;;8.48;54.15;101516.16;2095342;28;47221;-50
2022/03/06 04:18:04;;;;;;;;;72.67;56.67;;;;;8.47;54.38;101522.34;2082028;28;47376;-51
2022/03/06 04:19:04;;;;;;;;;72.75;57.75;;;;;8.47;54.15;101521.44;2095418;28;47558;-53
2022/03/06 04:20:06;;;;;;;;;70.00;56.00;;;;;8.46;54.44;101524.97;2111966;27;47984;-54
2022/03/06 04:21:07;;;;;;;;;72.80;57.00;;;;;8.44;54.16;101519.69;2109965;27;47906;-50
2022/03/06 04:22:07;;;;;;;;;73.00;57.00;;;;;8.45;54.32;101524.09;2104076;28;47469;-53
2022/03/06 04:23:08;;;;;;;;;69.75;55.75;;;;;8.44;54.37;101529.41;2104049;27;47516;-54
2022/03/06 04:24:08;;;;;;;;;69.25;56.50;;;;;8.44;54.40;101524.97;2103798;28;47669;-52
2022/03/06 04:25:09;;;;;;;;;74.75;56.75;;;;;8.45;54.17;101525.88;2118158;27;47430;-52
2022/03/06 04:26:09;;;;;;;;;74.50;58.25;;;;;8.45;54.27;101531.16;2116373;27;47325;-55
2022/03/06 04:27:10;;;;;;;;;70.00;57.00;;;;;8.43;54.49;101528.50;2112614;27;47096;-51
2022/03/06 04:28:10;;;;;;;;;70.75;57.75;;;;;8.42;54.56;101526.75;2111954;27;47346;-54
2022/03/06 04:29:11;;;;;;;;;76.00;59.25;;;;;8.42;54.35;101533.81;2112267;27;47268;-50
2022/03/06 04:30:11;;;;;;;;;69.50;55.50;;;;;8.39;54.24;101533.81;2111521;27;47499;-51
2022/03/06 04:31:12;;;;;;;;;69.75;54.50;;;;;8.38;54.45;101529.38;2112240;27;47702;-54
2022/03/06 04:32:13;;;;;;;;;69.80;54.80;;;;;8.35;54.45;101526.75;2108230;27;46615;-51
2022/03/06 04:33:13;;;;;;;;;70.75;55.50;;;;;8.33;54.56;101526.72;2112299;27;47965;-52
2022/03/06 04:34:14;;;;;;;;;70.00;56.50;;;;;8.32;54.70;101532.88;2112188;27;47554;-52
2022/03/06 04:35:14;;;;;;;;;74.50;58.50;;;;;8.30;54.60;101526.72;2113576;27;47984;-54
2022/03/06 04:36:15;;;;;;;;;68.75;55.50;;;;;8.30;54.57;101534.66;2130540;27;47587;-51
2022/03/06 04:37:16;;;;;;;;;72.25;58.25;;;;;8.29;54.36;101537.28;2130709;27;46215;-53
2022/03/06 04:38:16;;;;;;;;;73.20;59.00;;;;;8.26;54.48;101536.41;2130526;27;47694;-53
2022/03/06 04:39:17;;;;;;;;;68.50;56.75;;;;;8.25;54.65;101539.03;2130071;27;47200;-53